Time;durP1;ratioP1;P1;durP2;ratioP2;P2;SDS_P1;SDS_P2;PMS_P1;PMS_P2;Temp;Humidity;BMP_temperature;BMP_pressure;BME280_temperature;BME280_humidity;BME280_pressure;Samples;Min_cycle;Max_cycle;Signal;HPM_P1;HPM_P2
2022/09/02 00:04:05;;;;;;;7.40;4.75;;;;;;;16.12;81.76;100372.66;20830512;28;20498;-75
2022/09/02 00:14:06;;;;;;;6.22;4.75;;;;;;;16.08;81.84;100359.63;20829207;28;20052;-75
2022/09/02 00:24:08;;;;;;;9.52;5.65;;;;;;;16.06;82.03;100359.69;20830080;28;20037;-75
2022/09/02 00:34:09;;;;;;;7.03;4.95;;;;;;;16.01;82.19;100356.38;20828237;28;20041;-75
2022/09/02 00:44:10;;;;;;;7.50;4.88;;;;;;;15.93;82.75;100347.88;20827270;28;20061;-75
2022/09/02 00:54:12;;;;;;;6.93;4.90;;;;;;;15.81;84.75;100346.59;20827333;28;20049;-74
2022/09/02 01:04:13;;;;;;;7.32;5.30;;;;;;;15.72;84.52;100346.94;20826031;28;20052;-75
2022/09/02 01:14:15;;;;;;;12.27;5.03;;;;;;;15.61;85.39;100352.56;20825795;28;20049;-75
2022/09/02 01:24:16;;;;;;;7.38;5.05;;;;;;;15.59;85.05;100348.28;20823282;28;20084;-75
2022/09/02 01:34:17;;;;;;;7.75;5.15;;;;;;;15.38;87.26;100357.84;20823483;28;20041;-75
2022/09/02 01:44:19;;;;;;;8.48;5.35;;;;;;;15.28;89.98;100348.50;20823266;28;20061;-76
2022/09/02 01:54:20;;;;;;;6.57;4.82;;;;;;;15.16;90.15;100343.69;20821840;28;20056;-75
2022/09/02 02:04:23;;;;;;;7.70;5.03;;;;;;;15.01;92.52;100353.00;20820554;28;20457;-79
2022/09/02 02:14:25;;;;;;;7.95;5.72;;;;;;;14.85;95.14;100355.28;20820896;28;20045;-76
2022/09/02 02:24:26;;;;;;;9.75;6.10;;;;;;;14.73;98.07;100350.44;20819506;28;20147;-77
2022/09/02 02:34:28;;;;;;;7.32;5.68;;;;;;;14.70;98.74;100340.00;20818600;28;20502;-78
2022/09/02 02:44:30;;;;;;;9.93;6.53;;;;;;;14.28;100.00;100343.13;20818197;28;20037;-78
2022/09/02 02:54:31;;;;;;;9.05;6.65;;;;;;;14.00;100.00;100341.34;20818183;28;20059;-78
2022/09/02 03:04:35;;;;;;;8.30;6.95;;;;;;;13.87;100.00;100347.88;20817547;28;20146;-76
2022/09/02 03:14:36;;;;;;;9.30;6.38;;;;;;;13.79;100.00;100344.59;20817219;28;20513;-79
2022/09/02 03:24:38;;;;;;;9.32;6.82;;;;;;;13.69;100.00;100348.41;20816761;28;20053;-77
2022/09/02 03:34:40;;;;;;;10.20;7.30;;;;;;;13.55;100.00;100347.03;20816889;28;20494;-79
2022/09/02 03:44:42;;;;;;;10.95;7.05;;;;;;;13.52;100.00;100344.50;20817757;28;20046;-76
2022/09/02 03:54:43;;;;;;;11.82;7.63;;;;;;;13.28;100.00;100353.97;20828809;28;20490;-76
2022/09/02 04:04:44;;;;;;;11.45;7.72;;;;;;;13.02;100.00;100351.97;20830390;28;20095;-79
2022/09/02 04:14:46;;;;;;;9.30;7.00;;;;;;;13.06;100.00;100350.16;20829246;28;20085;-76
2022/09/02 04:24:50;;;;;;;11.10;7.47;;;;;;;13.08;100.00;100345.72;20829452;28;20085;-76
2022/09/02 04:34:51;;;;;;;13.00;7.70;;;;;;;12.93;100.00;100336.44;20828877;28;20053;-79
2022/09/02 04:44:55;;;;;;;9.18;6.82;;;;;;;12.94;100.00;100343.47;20828612;28;20482;-77
2022/09/02 04:54:56;;;;;;;10.27;6.78;;;;;;;13.01;100.00;100342.38;20857752;23;20813;-84
2022/09/02 05:04:58;;;;;;;9.65;6.70;;;;;;;13.11;100.00;100353.50;20841492;28;20053;-85
2022/09/02 05:15:00;;;;;;;9.35;6.40;;;;;;;13.24;100.00;100346.19;20839454;28;20041;-84
2022/09/02 05:25:01;;;;;;;9.52;6.20;;;;;;;13.23;100.00;100344.47;20823400;28;20055;-87
2022/09/02 05:35:03;;;;;;;11.35;7.35;;;;;;;13.33;100.00;100353.84;20826866;28;20141;-84
2022/09/02 05:45:04;;;;;;;9.70;6.35;;;;;;;13.45;100.00;100361.38;20841282;28;20046;-84
2022/09/02 05:55:05;;;;;;;11.55;7.28;;;;;;;13.58;100.00;100352.22;20819623;28;20052;-85
2022/09/02 06:05:10;;;;;;;9.20;6.40;;;;;;;13.69;100.00;100354.53;20823452;28;20532;-84
2022/09/02 06:15:12;;;;;;;7.40;5.93;;;;;;;14.02;100.00;100357.94;20841804;28;20042;-83
2022/09/02 06:25:13;;;;;;;10.52;5.93;;;;;;;14.33;100.00;100352.59;20842369;28;20076;-83
2022/09/02 06:35:15;;;;;;;10.68;5.57;;;;;;;14.59;100.00;100338.59;20823082;28;20046;-84
2022/09/02 06:45:16;;;;;;;7.13;4.72;;;;;;;15.07;100.00;100335.19;20824301;28;20092;-84
2022/09/02 06:55:17;;;;;;;8.48;4.82;;;;;;;15.40;98.83;100340.16;20840775;28;20115;-84
2022/09/02 07:05:19;;;;;;;6.78;3.95;;;;;;;15.71;95.09;100328.50;20819231;28;20056;-84
2022/09/02 07:15:20;;;;;;;8.15;4.03;;;;;;;15.88;92.25;100328.72;20835621;28;20046;-84
2022/09/02 07:25:22;;;;;;;8.63;3.60;;;;;;;16.41;87.63;100307.22;20822646;28;20045;-84
2022/09/02 07:35:23;;;;;;;6.43;3.35;;;;;;;16.57;86.83;100308.28;20829115;28;20116;-84
2022/09/02 07:45:25;;;;;;;6.22;3.30;;;;;;;16.89;85.78;100304.31;20845867;28;20046;-84
2022/09/02 07:55:26;;;;;;;5.38;2.90;;;;;;;17.33;83.37;100311.22;20868253;28;20053;-85
2022/09/02 08:05:28;;;;;;;5.90;2.50;;;;;;;17.65;79.91;100307.97;20849967;28;20049;-84
2022/09/02 08:15:29;;;;;;;5.68;2.25;;;;;;;18.11;76.26;100303.19;20845778;28;20045;-85
2022/09/02 08:25:31;;;;;;;5.15;2.42;;;;;;;18.58;72.52;100307.91;20826182;28;20050;-85
2022/09/02 08:35:32;;;;;;;5.00;2.05;;;;;;;18.84;71.46;100303.97;20821861;28;20048;-85
2022/09/02 08:45:35;;;;;;;5.85;1.90;;;;;;;19.30;67.62;100292.75;20841175;28;20053;-85
2022/09/02 08:55:37;;;;;;;7.97;2.20;;;;;;;19.68;66.69;100286.22;20827786;28;20515;-85
2022/09/02 09:05:38;;;;;;;3.10;1.33;;;;;;;19.97;64.51;100275.78;20826376;28;20046;-85
2022/09/02 09:15:40;;;;;;;3.85;1.50;;;;;;;20.64;52.23;100277.22;20823036;28;20045;-85
2022/09/02 09:25:41;;;;;;;5.78;1.63;;;;;;;20.93;52.95;100272.81;20853085;28;20063;-85
2022/09/02 09:35:43;;;;;;;4.65;1.65;;;;;;;21.25;49.73;100257.53;20818212;28;20665;-85
2022/09/02 09:45:45;;;;;;;5.10;1.38;;;;;;;21.53;48.57;100250.50;20817855;28;20476;-82
2022/09/02 09:55:46;;;;;;;5.30;1.50;;;;;;;21.80;48.70;100241.66;20817760;28;20038;-85
2022/09/02 10:05:47;;;;;;;3.45;1.42;;;;;;;22.01;43.86;100235.81;20830944;28;20303;-85
2022/09/02 10:15:49;;;;;;;4.00;1.50;;;;;;;22.36;44.01;100229.09;20834706;28;20049;-85
2022/09/02 10:25:50;;;;;;;2.50;1.00;;;;;;;22.39;43.03;100213.75;20819911;28;20049;-85
2022/09/02 10:35:52;;;;;;;3.75;1.20;;;;;;;22.56;42.86;100198.41;20810957;28;20096;-85
2022/09/02 10:45:53;;;;;;;4.35;1.30;;;;;;;22.81;43.16;100182.41;20813239;28;20539;-85
2022/09/02 10:55:57;;;;;;;5.00;1.70;;;;;;;22.95;40.60;100168.13;20811487;28;20046;-85
2022/09/02 11:05:58;;;;;;;4.37;1.43;;;;;;;23.10;39.97;100140.31;20811152;28;20111;-85
2022/09/02 11:16:00;;;;;;;3.97;1.35;;;;;;;23.14;41.69;100131.13;20836380;28;20498;-85
2022/09/02 11:26:01;;;;;;;3.80;1.10;;;;;;;23.25;38.19;100128.53;20813627;28;20053;-84
2022/09/02 11:36:03;;;;;;;3.45;0.90;;;;;;;23.31;39.56;100135.22;20818799;28;20566;-84
2022/09/02 11:46:04;;;;;;;2.35;1.02;;;;;;;23.43;38.45;100120.13;20829637;28;20046;-84
2022/09/02 11:56:05;;;;;;;3.20;0.95;;;;;;;23.49;38.10;100125.88;20844371;28;20045;-84
2022/09/02 12:06:07;;;;;;;3.35;0.90;;;;;;;23.37;38.23;100109.88;20825654;28;20132;-85
2022/09/02 12:16:09;;;;;;;5.70;1.20;;;;;;;23.77;36.77;100106.00;20837700;28;20061;-84
2022/09/02 12:26:10;;;;;;;3.50;1.23;;;;;;;23.88;38.15;100093.63;20839770;28;20042;-85
2022/09/02 12:36:16;;;;;;;2.22;0.90;;;;;;;23.92;35.18;100084.41;20836603;28;20045;-84
2022/09/02 12:46:18;;;;;;;2.08;1.02;;;;;;;23.95;37.56;100073.47;20845354;28;20128;-85
2022/09/02 12:56:19;;;;;;;2.83;0.93;;;;;;;24.13;35.99;100055.16;20900698;28;20034;-87
2022/09/02 13:06:21;;;;;;;2.67;1.00;;;;;;;24.06;36.81;100038.72;20843474;28;20038;-86
2022/09/02 13:16:22;;;;;;;3.42;1.08;;;;;;;24.05;36.60;100018.28;20846739;28;20045;-85
2022/09/02 13:26:24;;;;;;;3.70;1.08;;;;;;;24.20;33.96;99997.53;20829845;28;20484;-85
2022/09/02 13:36:45;;;;;;;3.97;1.02;;;;;;;24.43;34.09;99985.00;20849216;28;20045;-85
2022/09/02 13:46:47;;;;;;;2.33;1.10;;;;;;;24.45;35.81;99985.75;20835281;28;20109;-85
2022/09/02 13:56:48;;;;;;;2.05;1.05;;;;;;;24.36;34.42;99978.44;20831759;28;20076;-85
2022/09/02 14:06:50;;;;;;;2.72;0.88;;;;;;;24.35;34.94;99966.88;20838867;28;20041;-85
2022/09/02 14:16:51;;;;;;;4.38;1.55;;;;;;;24.57;33.81;99944.59;20819919;28;20185;-84
2022/09/02 14:26:53;;;;;;;5.05;1.23;;;;;;;24.68;34.04;99938.41;20830065;28;20077;-84
2022/09/02 14:36:54;;;;;;;2.60;1.10;;;;;;;24.52;34.07;99910.19;20830491;28;20498;-85
2022/09/02 14:46:55;;;;;;;2.53;1.25;;;;;;;24.44;33.90;99904.63;20855890;28;20152;-85
2022/09/02 14:56:57;;;;;;;3.72;0.93;;;;;;;24.67;33.93;99894.69;20826673;28;20041;-85
2022/09/02 15:06:58;;;;;;;3.90;1.00;;;;;;;24.35;34.31;99909.84;20806968;28;20049;-84
2022/09/02 15:16:59;;;;;;;10.02;1.60;;;;;;;24.39;34.47;99898.78;20808320;28;20482;-85
2022/09/02 15:27:01;;;;;;;3.13;0.95;;;;;;;24.50;33.59;99895.25;20807723;28;20057;-85
2022/09/02 15:37:02;;;;;;;2.30;0.95;;;;;;;24.41;33.72;99901.34;20805385;28;20408;-84
2022/09/02 15:47:03;;;;;;;5.78;1.25;;;;;;;24.19;35.67;99908.38;20816007;28;20055;-85
2022/09/02 15:57:05;;;;;;;4.53;1.20;;;;;;;23.94;37.07;99892.59;20822374;28;20091;-85
2022/09/02 16:07:07;;;;;;;2.47;1.05;;;;;;;23.55;36.15;99874.19;20838692;28;20051;-85
2022/09/02 16:17:09;;;;;;;2.78;1.00;;;;;;;23.42;36.99;99867.25;20822962;28;20046;-86
2022/09/02 16:27:10;;;;;;;4.97;1.00;;;;;;;23.31;37.69;99873.44;20912545;28;20052;-85
2022/09/02 16:37:12;;;;;;;1.83;1.00;;;;;;;23.08;38.35;99869.84;20918995;28;20045;-85
2022/09/02 16:47:13;;;;;;;1.20;0.80;;;;;;;23.12;37.52;99875.81;20902628;28;20053;-85
2022/09/02 16:57:14;;;;;;;3.80;1.50;;;;;;;23.21;37.71;99875.94;20911145;28;20512;-85
2022/09/02 17:07:16;;;;;;;3.97;1.00;;;;;;;23.19;37.63;99871.72;20933917;28;20059;-85
2022/09/02 17:17:17;;;;;;;3.63;1.02;;;;;;;23.13;37.80;99870.34;20931183;28;20060;-86
2022/09/02 17:27:18;;;;;;;3.85;1.08;;;;;;;23.04;38.29;99863.91;20914074;28;20048;-85
2022/09/02 17:37:20;;;;;;;7.82;1.45;;;;;;;22.68;40.22;99854.13;20914444;28;20045;-85
2022/09/02 17:47:22;;;;;;;8.63;1.70;;;;;;;22.48;41.71;99854.78;20968051;28;20045;-87
2022/09/02 17:57:24;;;;;;;4.45;1.52;;;;;;;22.13;42.15;99850.19;20902037;28;20132;-84
2022/09/02 18:07:26;;;;;;;5.57;1.27;;;;;;;21.78;43.79;99856.19;20894650;28;20041;-85
2022/09/02 18:17:27;;;;;;;3.83;2.10;;;;;;;21.49;46.68;99849.41;20893151;28;20049;-85
2022/09/02 18:27:29;;;;;;;6.95;1.48;;;;;;;20.82;49.47;99851.31;20911474;28;20055;-85
2022/09/02 18:37:30;;;;;;;4.55;1.60;;;;;;;20.45;50.54;99861.69;20893806;28;20079;-84
2022/09/02 18:47:32;;;;;;;6.40;1.30;;;;;;;20.28;50.99;99872.56;20909888;28;20444;-86
2022/09/02 18:57:34;;;;;;;2.95;1.30;;;;;;;19.93;52.21;99872.97;20892062;28;20048;-85
2022/09/02 19:17:55;;;;;;;2.72;1.27;;;;;;;19.49;53.88;99895.16;20912614;28;20482;-84
2022/09/02 19:27:56;;;;;;;3.03;1.40;;;;;;;19.42;54.52;99888.50;20910815;28;20065;-84
2022/09/02 19:37:58;;;;;;;5.18;1.50;;;;;;;19.37;53.89;99888.78;20909058;28;20493;-84
2022/09/02 19:47:59;;;;;;;2.35;1.25;;;;;;;19.45;52.31;99890.97;20923866;28;20049;-85
2022/09/02 19:58:09;;;;;;;3.17;1.60;;;;;;;19.50;51.29;99886.25;20908245;28;20072;-85
2022/09/02 20:08:10;;;;;;;3.58;1.30;;;;;;;19.46;52.47;99887.38;20919301;28;20056;-85
2022/09/02 20:18:12;;;;;;;4.13;1.40;;;;;;;18.93;55.85;99894.09;20901787;28;20395;-85
2022/09/02 20:28:13;;;;;;;6.15;1.50;;;;;;;18.65;58.08;99887.69;20902447;28;20051;-85
2022/09/02 20:38:15;;;;;;;4.72;1.70;;;;;;;18.52;58.13;99884.00;20898629;28;20041;-85
2022/09/02 20:48:21;;;;;;;3.75;1.60;;;;;;;18.69;56.20;99891.91;20917864;28;20051;-85
2022/09/02 20:58:22;;;;;;;6.45;1.45;;;;;;;18.64;56.44;99880.69;20917151;28;20045;-85
2022/09/02 21:08:24;;;;;;;5.10;1.90;;;;;;;18.61;56.74;99883.50;20898342;28;20051;-85
2022/09/02 21:18:25;;;;;;;3.63;1.73;;;;;;;18.48;57.72;99882.47;20822192;28;20165;-85
2022/09/02 21:28:27;;;;;;;5.95;1.63;;;;;;;18.52;57.11;99878.72;20811602;28;20055;-85
2022/09/02 21:38:28;;;;;;;5.72;1.75;;;;;;;18.80;55.82;99882.47;20810688;28;20061;-85
2022/09/02 21:48:32;;;;;;;3.90;1.60;;;;;;;18.83;55.47;99884.94;20829556;28;20654;-84
2022/09/02 21:58:33;;;;;;;2.90;1.50;;;;;;;18.84;55.35;99887.50;20811022;28;20045;-85
2022/09/02 22:08:35;;;;;;;8.25;1.85;;;;;;;19.03;54.56;99879.34;20809421;28;20046;-85
2022/09/02 22:18:36;;;;;;;3.38;1.50;;;;;;;19.06;54.84;99878.28;20829714;28;20060;-85
2022/09/02 22:28:38;;;;;;;5.80;1.73;;;;;;;19.02;55.58;99877.63;20811224;28;20410;-85
2022/09/02 22:38:40;;;;;;;6.45;1.90;;;;;;;18.92;56.61;99879.09;20828464;28;20041;-85
2022/09/02 22:59:02;;;;;;;3.47;1.52;;;;;;;18.90;56.74;99878.34;20823973;28;20049;-85
2022/09/02 23:09:10;;;;;;;2.67;1.20;;;;;;;18.83;57.24;99883.16;20822051;28;20054;-84
2022/09/02 23:19:11;;;;;;;5.05;1.52;;;;;;;18.89;57.04;99879.28;20807932;28;20065;-84
2022/09/02 23:29:12;;;;;;;4.18;1.60;;;;;;;18.76;58.68;99886.25;20836493;28;20050;-85
2022/09/02 23:39:14;;;;;;;3.47;1.60;;;;;;;18.69;59.46;99886.59;20803725;28;20049;-85
2022/09/02 23:49:19;;;;;;;2.63;1.40;;;;;;;18.51;61.56;99878.81;20805533;28;20088;-84
2022/09/02 23:59:22;;;;;;;2.58;1.40;;;;;;;18.55;60.19;99865.28;20822961;28;20430;-85
